createdAt,value
2022-08-24T00:00:07.208Z,23.39
2022-08-24T00:00:17.947Z,23.39
2022-08-24T00:00:29.661Z,23.38
2022-08-24T00:00:40.388Z,23.34
2022-08-24T00:00:51.259Z,23.34
2022-08-24T00:01:03.060Z,23.32
2022-08-24T00:01:13.869Z,23.31
2022-08-24T00:01:24.629Z,23.31
2022-08-24T00:01:35.360Z,23.31
2022-08-24T00:01:46.162Z,23.31
2022-08-24T00:01:57.039Z,23.31
2022-08-24T00:02:11.796Z,23.29
2022-08-24T00:02:23.033Z,23.27
2022-08-24T00:02:33.952Z,23.27
2022-08-24T00:02:45.734Z,23.29
2022-08-24T00:02:57.668Z,23.31
2022-08-24T00:03:09.511Z,23.31
2022-08-24T00:03:20.360Z,23.31
2022-08-24T00:03:34.780Z,23.32
2022-08-24T00:03:45.713Z,23.32
2022-08-24T00:03:57.357Z,23.32
2022-08-24T00:04:09.082Z,23.32
2022-08-24T00:04:26.225Z,23.34
2022-08-24T00:04:37.031Z,23.35
2022-08-24T00:04:47.850Z,23.38
2022-08-24T00:05:01.651Z,23.38
2022-08-24T00:05:14.929Z,23.39
2022-08-24T00:05:25.841Z,23.38
2022-08-24T00:05:36.615Z,23.38
2022-08-24T00:05:47.371Z,23.38
2022-08-24T00:05:58.181Z,23.38
2022-08-24T00:06:09.012Z,23.35
2022-08-24T00:06:20.720Z,23.35
2022-08-24T00:06:31.472Z,23.35
2022-08-24T00:06:42.234Z,23.34
2022-08-24T00:06:54.472Z,23.38
2022-08-24T00:07:05.242Z,23.35
2022-08-24T00:07:27.463Z,23.35
2022-08-24T00:07:38.433Z,23.35
2022-08-24T00:07:49.183Z,23.35
2022-08-24T00:08:01.480Z,23.34
2022-08-24T00:08:12.245Z,23.35
2022-08-24T00:08:23.993Z,23.34
2022-08-24T00:08:34.863Z,23.32
2022-08-24T00:08:45.673Z,23.32
2022-08-24T00:08:56.444Z,23.31
2022-08-24T00:09:07.236Z,23.31
2022-08-24T00:09:18.955Z,23.31
2022-08-24T00:09:29.721Z,23.31
2022-08-24T00:09:40.493Z,23.31
2022-08-24T00:09:51.254Z,23.34
2022-08-24T00:10:03.756Z,23.34
2022-08-24T00:10:16.194Z,23.34
2022-08-24T00:10:26.963Z,23.34
2022-08-24T00:10:37.713Z,23.35
2022-08-24T00:10:48.444Z,23.38
2022-08-24T00:10:59.225Z,23.35
2022-08-24T00:11:09.964Z,23.35
2022-08-24T00:11:21.684Z,23.38
2022-08-24T00:11:32.445Z,23.35
2022-08-24T00:11:43.214Z,23.34
2022-08-24T00:11:54.004Z,23.34
2022-08-24T00:12:04.751Z,23.32
2022-08-24T00:12:15.472Z,23.32
2022-08-24T00:12:26.195Z,23.29
2022-08-24T00:12:36.934Z,23.27
2022-08-24T00:12:47.674Z,23.26
2022-08-24T00:12:58.415Z,23.26
2022-08-24T00:13:09.151Z,23.24
2022-08-24T00:13:20.855Z,23.24
2022-08-24T00:13:32.595Z,23.24
2022-08-24T00:13:47.255Z,23.26
2022-08-24T00:13:57.996Z,23.29
2022-08-24T00:14:08.746Z,23.29
2022-08-24T00:14:19.485Z,23.27
2022-08-24T00:14:31.905Z,23.31
2022-08-24T00:14:42.635Z,23.31
2022-08-24T00:14:53.378Z,23.32
2022-08-24T00:15:04.168Z,23.32
2022-08-24T00:15:14.916Z,23.32
2022-08-24T00:15:25.644Z,23.31
2022-08-24T00:15:37.336Z,23.32
2022-08-24T00:15:48.076Z,23.32
2022-08-24T00:15:58.826Z,23.32
2022-08-24T00:16:10.598Z,23.31
2022-08-24T00:16:22.866Z,23.31
2022-08-24T00:16:33.628Z,23.29
2022-08-24T00:16:44.405Z,23.29
2022-08-24T00:16:55.211Z,23.27
2022-08-24T00:17:05.994Z,23.27
2022-08-24T00:17:16.740Z,23.26
2022-08-24T00:17:29.947Z,23.27
2022-08-24T00:17:40.696Z,23.26
2022-08-24T00:17:53.127Z,23.26
2022-08-24T00:18:04.129Z,23.27
2022-08-24T00:18:15.027Z,23.26
2022-08-24T00:18:25.775Z,23.24
2022-08-24T00:18:37.371Z,23.26
2022-08-24T00:18:48.127Z,23.24
2022-08-24T00:18:59.809Z,23.24
2022-08-24T00:19:10.538Z,23.23
2022-08-24T00:19:21.272Z,23.24
2022-08-24T00:19:33.471Z,23.23
2022-08-24T00:19:44.228Z,23.23
2022-08-24T00:19:54.958Z,23.24
2022-08-24T00:20:05.769Z,23.23
2022-08-24T00:20:16.519Z,23.23
2022-08-24T00:20:27.249Z,23.23
2022-08-24T00:20:40.043Z,23.23
2022-08-24T00:20:53.589Z,23.26
2022-08-24T00:21:04.328Z,23.26
2022-08-24T00:21:15.056Z,23.27
2022-08-24T00:21:25.782Z,23.26
2022-08-24T00:21:37.478Z,23.26
2022-08-24T00:21:48.228Z,23.27
2022-08-24T00:21:59.979Z,23.27
2022-08-24T00:22:13.201Z,23.26
2022-08-24T00:22:23.938Z,23.24
2022-08-24T00:22:34.669Z,23.26
2022-08-24T00:22:45.428Z,23.24
2022-08-24T00:22:56.158Z,23.24
2022-08-24T00:23:06.900Z,23.26
2022-08-24T00:23:17.632Z,23.24
2022-08-24T00:23:28.372Z,23.24
2022-08-24T00:23:39.101Z,23.26
2022-08-24T00:23:49.849Z,23.26
2022-08-24T00:24:00.611Z,23.27
2022-08-24T00:24:13.940Z,23.29
2022-08-24T00:24:24.680Z,23.29
2022-08-24T00:24:35.419Z,23.31
2022-08-24T00:24:46.159Z,23.27
2022-08-24T00:24:56.900Z,23.27
2022-08-24T00:25:09.323Z,23.29
2022-08-24T00:25:20.060Z,23.24
2022-08-24T00:25:30.800Z,23.23
2022-08-24T00:25:42.502Z,23.24
2022-08-24T00:25:54.200Z,23.24
2022-08-24T00:26:04.948Z,23.24
2022-08-24T00:26:15.700Z,23.26
2022-08-24T00:26:29.034Z,23.26
2022-08-24T00:26:40.082Z,23.29
2022-08-24T00:26:50.831Z,23.31
2022-08-24T00:27:03.271Z,23.31
2022-08-24T00:27:14.020Z,23.32
2022-08-24T00:27:24.752Z,23.32
2022-08-24T00:27:35.514Z,23.32
2022-08-24T00:27:47.942Z,23.34
2022-08-24T00:27:58.716Z,23.35
2022-08-24T00:28:09.461Z,23.34
2022-08-24T00:28:20.231Z,23.38
2022-08-24T00:28:30.990Z,23.38
2022-08-24T00:28:41.753Z,23.38
2022-08-24T00:28:52.552Z,23.38
2022-08-24T00:29:07.498Z,23.35
2022-08-24T00:29:18.452Z,23.35
2022-08-24T00:29:30.441Z,23.35
2022-08-24T00:29:41.202Z,23.32
2022-08-24T00:29:51.941Z,23.32
2022-08-24T00:30:02.672Z,23.27
2022-08-24T00:30:13.465Z,23.27
2022-08-24T00:30:24.202Z,23.27
2022-08-24T00:30:35.913Z,23.26
2022-08-24T00:30:46.652Z,23.23
2022-08-24T00:30:58.353Z,23.23
2022-08-24T00:31:09.103Z,23.22
2022-08-24T00:31:19.867Z,23.20
2022-08-24T00:31:30.677Z,23.20
2022-08-24T00:31:41.445Z,23.17
2022-08-24T00:31:52.215Z,23.19
2022-08-24T00:32:02.966Z,23.17
2022-08-24T00:32:13.723Z,23.17
2022-08-24T00:32:25.697Z,23.14
2022-08-24T00:32:36.523Z,23.12
2022-08-24T00:32:48.963Z,23.12
2022-08-24T00:32:59.724Z,23.11
2022-08-24T00:33:10.463Z,23.12
2022-08-24T00:33:21.204Z,23.11
2022-08-24T00:33:31.972Z,23.12
2022-08-24T00:33:42.975Z,23.12
2022-08-24T00:33:54.678Z,23.12
2022-08-24T00:34:05.424Z,23.12
2022-08-24T00:34:16.154Z,23.12
2022-08-24T00:34:26.894Z,23.12
2022-08-24T00:34:38.688Z,23.11
2022-08-24T00:34:59.026Z,23.12
2022-08-24T00:35:06.015Z,23.11
2022-08-24T00:35:16.775Z,23.09
2022-08-24T00:35:27.516Z,23.11
2022-08-24T00:35:38.265Z,23.11
2022-08-24T00:35:48.984Z,23.11
2022-08-24T00:35:59.716Z,23.12
2022-08-24T00:36:11.426Z,23.14
2022-08-24T00:36:22.207Z,23.14
2022-08-24T00:36:32.925Z,23.14
2022-08-24T00:36:43.657Z,23.15
2022-08-24T00:36:54.455Z,23.17
2022-08-24T00:37:05.186Z,23.17
2022-08-24T00:37:15.998Z,23.17
2022-08-24T00:37:27.830Z,23.15
2022-08-24T00:37:39.536Z,23.17
2022-08-24T00:37:50.293Z,23.19
2022-08-24T00:38:02.907Z,23.19
2022-08-24T00:38:15.366Z,23.17
2022-08-24T00:38:27.844Z,23.20
2022-08-24T00:38:42.026Z,23.19
2022-08-24T00:38:52.819Z,23.19
2022-08-24T00:39:03.556Z,23.19
2022-08-24T00:39:14.320Z,23.20
2022-08-24T00:39:26.027Z,23.20
2022-08-24T00:39:36.767Z,23.20
2022-08-24T00:39:48.515Z,23.20
2022-08-24T00:39:59.304Z,23.20
2022-08-24T00:40:12.030Z,23.20
2022-08-24T00:40:22.869Z,23.20
2022-08-24T00:40:33.619Z,23.19
2022-08-24T00:40:44.367Z,23.19
2022-08-24T00:40:56.057Z,23.19
2022-08-24T00:41:06.789Z,23.19
2022-08-24T00:41:17.520Z,23.19
2022-08-24T00:41:28.297Z,23.19
2022-08-24T00:41:40.521Z,23.20
2022-08-24T00:41:51.274Z,23.19
2022-08-24T00:42:01.997Z,23.20
2022-08-24T00:42:12.738Z,23.19
2022-08-24T00:42:24.447Z,23.19
2022-08-24T00:42:35.200Z,23.19
2022-08-24T00:42:45.946Z,23.19
2022-08-24T00:42:56.692Z,23.17
2022-08-24T00:43:08.396Z,23.19
2022-08-24T00:43:19.168Z,23.17
2022-08-24T00:43:29.935Z,23.15
2022-08-24T00:43:40.670Z,23.15
2022-08-24T00:43:52.363Z,23.15
2022-08-24T00:44:03.100Z,23.12
2022-08-24T00:44:13.916Z,23.12
2022-08-24T00:44:25.819Z,23.12
2022-08-24T00:44:36.570Z,23.11
2022-08-24T00:44:47.298Z,23.12
2022-08-24T00:44:58.059Z,23.12
2022-08-24T00:45:11.290Z,23.11
2022-08-24T00:45:23.098Z,23.09
2022-08-24T00:45:35.329Z,23.07
2022-08-24T00:45:46.114Z,23.07
2022-08-24T00:45:59.323Z,23.07
2022-08-24T00:46:10.065Z,23.07
2022-08-24T00:46:22.500Z,23.05
2022-08-24T00:46:33.254Z,23.04
2022-08-24T00:46:44.949Z,23.04
2022-08-24T00:46:55.736Z,23.04
2022-08-24T00:47:06.472Z,23.02
2022-08-24T00:47:17.208Z,23.02
2022-08-24T00:47:28.910Z,23.02
2022-08-24T00:47:39.691Z,23.01
2022-08-24T00:47:51.922Z,23.02
2022-08-24T00:48:03.834Z,23.02
2022-08-24T00:48:15.655Z,23.02
2022-08-24T00:48:26.400Z,23.04
2022-08-24T00:48:38.139Z,23.04
2022-08-24T00:48:48.871Z,23.02
2022-08-24T00:48:59.628Z,23.04
2022-08-24T00:49:10.381Z,23.02
2022-08-24T00:49:21.109Z,23.01
2022-08-24T00:49:31.852Z,23.02
2022-08-24T00:49:44.262Z,23.02
2022-08-24T00:49:54.991Z,23.04
2022-08-24T00:50:06.053Z,23.04
2022-08-24T00:50:16.831Z,23.07
2022-08-24T00:50:27.620Z,23.07
2022-08-24T00:50:38.370Z,23.05
2022-08-24T00:50:49.122Z,23.07
2022-08-24T00:50:59.861Z,23.07
2022-08-24T00:51:11.246Z,23.07
2022-08-24T00:51:22.944Z,23.07
2022-08-24T00:51:34.182Z,23.08
2022-08-24T00:51:45.888Z,23.07
2022-08-24T00:51:57.973Z,23.07
2022-08-24T00:52:08.701Z,23.07
2022-08-24T00:52:21.122Z,23.05
2022-08-24T00:52:31.853Z,23.05
2022-08-24T00:52:44.296Z,23.05
2022-08-24T00:52:55.063Z,23.05
2022-08-24T00:53:08.273Z,23.05
2022-08-24T00:53:19.010Z,23.05
2022-08-24T00:53:29.743Z,23.05
2022-08-24T00:53:42.212Z,23.04
2022-08-24T00:53:53.955Z,23.02
2022-08-24T00:54:04.714Z,23.02
2022-08-24T00:54:16.424Z,23.01
2022-08-24T00:54:27.173Z,23.01
2022-08-24T00:54:39.228Z,22.99
2022-08-24T00:54:52.363Z,22.97
2022-08-24T00:55:03.103Z,22.97
2022-08-24T00:55:13.842Z,22.97
2022-08-24T00:55:25.523Z,22.96
2022-08-24T00:55:38.916Z,22.96
2022-08-24T00:55:50.613Z,22.96
2022-08-24T00:56:03.084Z,22.96
2022-08-24T00:56:13.824Z,22.97
2022-08-24T00:56:24.563Z,22.97
2022-08-24T00:56:35.315Z,22.96
2022-08-24T00:56:46.064Z,22.96
2022-08-24T00:56:56.815Z,22.96
2022-08-24T00:57:07.563Z,22.96
2022-08-24T00:57:19.474Z,22.96
2022-08-24T00:57:30.205Z,22.97
2022-08-24T00:57:42.030Z,22.99
2022-08-24T00:57:52.784Z,22.99
2022-08-24T00:58:03.713Z,22.97
2022-08-24T00:58:17.851Z,22.97
2022-08-24T00:58:30.294Z,22.97
2022-08-24T00:58:42.016Z,22.96
2022-08-24T00:58:56.839Z,22.94
2022-08-24T00:59:07.955Z,22.93
2022-08-24T00:59:20.425Z,22.93
2022-08-24T00:59:32.544Z,22.93
2022-08-24T00:59:43.394Z,22.92
2022-08-24T00:59:54.185Z,22.92
2022-08-24T01:00:04.935Z,22.90
2022-08-24T01:00:15.665Z,22.92
2022-08-24T01:00:26.413Z,22.92
2022-08-24T01:00:37.231Z,22.92
2022-08-24T01:00:48.624Z,22.90
2022-08-24T01:00:59.548Z,22.92
2022-08-24T01:01:12.832Z,22.90
2022-08-24T01:01:25.278Z,22.93
2022-08-24T01:01:36.125Z,22.92
2022-08-24T01:01:47.599Z,22.93
2022-08-24T01:02:05.312Z,22.93
2022-08-24T01:02:15.378Z,22.93
2022-08-24T01:02:26.718Z,22.94
2022-08-24T01:02:39.996Z,22.96
2022-08-24T01:02:50.757Z,22.93
2022-08-24T01:03:02.447Z,22.96
2022-08-24T01:03:13.178Z,22.96
2022-08-24T01:03:25.607Z,22.97
2022-08-24T01:03:36.356Z,22.97
2022-08-24T01:03:47.098Z,22.97
2022-08-24T01:03:57.897Z,22.99
2022-08-24T01:04:08.641Z,22.99
2022-08-24T01:04:19.378Z,22.99
2022-08-24T01:04:31.067Z,22.99
2022-08-24T01:04:44.627Z,23.01
2022-08-24T01:04:56.326Z,22.99
2022-08-24T01:05:07.067Z,22.99
2022-08-24T01:05:20.278Z,22.99
2022-08-24T01:05:31.027Z,22.99
2022-08-24T01:05:42.758Z,22.99
2022-08-24T01:05:54.458Z,22.99
2022-08-24T01:06:05.208Z,23.01
2022-08-24T01:06:15.956Z,23.02
2022-08-24T01:06:26.678Z,23.07
2022-08-24T01:06:37.659Z,23.07
2022-08-24T01:06:48.409Z,23.08
2022-08-24T01:07:00.609Z,23.08
2022-08-24T01:07:11.347Z,23.08
2022-08-24T01:07:23.040Z,23.09
2022-08-24T01:07:33.778Z,23.09
2022-08-24T01:07:44.522Z,23.11
2022-08-24T01:07:55.258Z,23.09
2022-08-24T01:08:07.778Z,23.11
2022-08-24T01:08:20.999Z,23.11
2022-08-24T01:08:34.209Z,23.12
2022-08-24T01:08:44.978Z,23.12
2022-08-24T01:08:56.643Z,23.14
2022-08-24T01:09:09.449Z,23.14
2022-08-24T01:09:21.130Z,23.14
2022-08-24T01:09:32.859Z,23.14
2022-08-24T01:09:45.100Z,23.14
2022-08-24T01:09:55.859Z,23.14
2022-08-24T01:10:06.670Z,23.14
2022-08-24T01:10:18.420Z,23.15
2022-08-24T01:10:29.171Z,23.15
2022-08-24T01:10:39.920Z,23.11
2022-08-24T01:10:51.629Z,23.12
2022-08-24T01:11:02.362Z,23.11
2022-08-24T01:11:13.109Z,23.12
2022-08-24T01:11:23.871Z,23.12
2022-08-24T01:11:34.630Z,23.11
2022-08-24T01:11:46.321Z,23.09
2022-08-24T01:11:57.082Z,23.09
2022-08-24T01:12:07.811Z,23.12
2022-08-24T01:12:18.551Z,23.11
2022-08-24T01:12:29.291Z,23.08
2022-08-24T01:12:40.021Z,23.07
2022-08-24T01:12:59.917Z,23.07
2022-08-24T01:13:06.362Z,23.05
2022-08-24T01:13:17.103Z,23.04
2022-08-24T01:13:27.841Z,23.05
2022-08-24T01:13:38.629Z,23.05
2022-08-24T01:13:49.391Z,23.05
2022-08-24T01:14:00.157Z,23.04
2022-08-24T01:14:10.892Z,23.02
2022-08-24T01:14:21.632Z,23.02
2022-08-24T01:14:32.362Z,22.97
2022-08-24T01:14:44.063Z,22.97
2022-08-24T01:14:54.802Z,22.96
2022-08-24T01:15:05.532Z,22.94
2022-08-24T01:15:16.272Z,22.96
2022-08-24T01:15:27.026Z,22.93
2022-08-24T01:15:37.760Z,22.94
2022-08-24T01:15:48.578Z,22.90
2022-08-24T01:15:59.381Z,22.90
2022-08-24T01:16:10.149Z,22.90
2022-08-24T01:16:21.156Z,22.90
2022-08-24T01:16:32.902Z,22.90
2022-08-24T01:16:43.685Z,22.89
2022-08-24T01:16:54.411Z,22.89
2022-08-24T01:17:05.171Z,22.89
2022-08-24T01:17:15.937Z,22.89
2022-08-24T01:17:26.702Z,22.87
2022-08-24T01:17:38.908Z,22.87
2022-08-24T01:17:52.903Z,22.87
2022-08-24T01:18:03.831Z,22.87
2022-08-24T01:18:15.567Z,22.87
2022-08-24T01:18:28.783Z,22.89
2022-08-24T01:18:39.622Z,22.90
2022-08-24T01:18:50.418Z,22.89
2022-08-24T01:19:01.164Z,22.90
2022-08-24T01:19:11.904Z,22.90
2022-08-24T01:19:23.595Z,22.89
2022-08-24T01:19:34.335Z,22.89
2022-08-24T01:19:45.079Z,22.90
2022-08-24T01:19:57.054Z,22.90
2022-08-24T01:20:10.518Z,22.90
2022-08-24T01:20:22.944Z,22.90
2022-08-24T01:20:33.705Z,22.89
2022-08-24T01:20:44.463Z,22.89
2022-08-24T01:20:55.206Z,22.90
2022-08-24T01:21:05.944Z,22.89
2022-08-24T01:21:17.635Z,22.90
2022-08-24T01:21:28.387Z,22.89
2022-08-24T01:21:40.085Z,22.89
2022-08-24T01:21:50.895Z,22.87
2022-08-24T01:22:01.685Z,22.89
2022-08-24T01:22:12.435Z,22.87
2022-08-24T01:22:23.175Z,22.90
2022-08-24T01:22:33.915Z,22.90
2022-08-24T01:22:45.605Z,22.90
2022-08-24T01:22:56.355Z,22.89
2022-08-24T01:23:07.095Z,22.89
2022-08-24T01:23:18.786Z,22.90
2022-08-24T01:23:36.292Z,22.89
2022-08-24T01:23:46.086Z,22.87
2022-08-24T01:23:56.836Z,22.87
2022-08-24T01:24:08.546Z,22.87
2022-08-24T01:24:19.306Z,22.87
2022-08-24T01:24:30.078Z,22.87
2022-08-24T01:24:40.796Z,22.87
2022-08-24T01:24:51.563Z,22.86
2022-08-24T01:25:02.287Z,22.86
2022-08-24T01:25:13.026Z,22.84
2022-08-24T01:25:23.766Z,22.86
2022-08-24T01:25:36.976Z,22.86
2022-08-24T01:25:49.206Z,22.84
2022-08-24T01:26:01.496Z,22.84
2022-08-24T01:26:15.083Z,22.82
2022-08-24T01:26:27.187Z,22.83
2022-08-24T01:26:37.935Z,22.82
2022-08-24T01:26:48.678Z,22.82
2022-08-24T01:27:01.190Z,22.83
2022-08-24T01:27:11.931Z,22.83
2022-08-24T01:27:27.985Z,22.84
2022-08-24T01:27:38.577Z,22.83
2022-08-24T01:27:49.408Z,22.83
2022-08-24T01:28:01.209Z,22.80
2022-08-24T01:28:14.378Z,22.80
2022-08-24T01:28:27.730Z,22.80
2022-08-24T01:28:40.227Z,22.77
2022-08-24T01:28:51.807Z,22.78
2022-08-24T01:29:03.790Z,22.78
2022-08-24T01:29:15.689Z,22.75
2022-08-24T01:29:26.837Z,22.74
2022-08-24T01:29:37.844Z,22.74
2022-08-24T01:29:50.247Z,22.72
2022-08-24T01:30:02.049Z,22.72
2022-08-24T01:30:13.099Z,22.72
2022-08-24T01:30:30.437Z,22.72
2022-08-24T01:30:41.638Z,22.74
2022-08-24T01:30:53.339Z,22.74
2022-08-24T01:31:04.205Z,22.75
2022-08-24T01:31:15.071Z,22.77
2022-08-24T01:31:25.874Z,22.80
2022-08-24T01:31:36.620Z,22.77
2022-08-24T01:31:47.423Z,22.77
2022-08-24T01:31:58.137Z,22.78
2022-08-24T01:32:08.869Z,22.80
2022-08-24T01:32:19.618Z,22.80
2022-08-24T01:32:30.357Z,22.80
2022-08-24T01:32:42.050Z,22.78
2022-08-24T01:32:52.789Z,22.80
2022-08-24T01:33:03.542Z,22.78
2022-08-24T01:33:15.240Z,22.80
2022-08-24T01:33:25.980Z,22.80
2022-08-24T01:33:36.721Z,22.80
2022-08-24T01:33:49.160Z,22.80
2022-08-24T01:33:59.900Z,22.78
2022-08-24T01:34:10.631Z,22.78
2022-08-24T01:34:21.380Z,22.80
2022-08-24T01:34:33.090Z,22.80
2022-08-24T01:34:45.541Z,22.80
2022-08-24T01:34:56.280Z,22.80
2022-08-24T01:35:07.012Z,22.78
2022-08-24T01:35:17.751Z,22.77
2022-08-24T01:35:29.460Z,22.77
2022-08-24T01:35:40.220Z,22.74
2022-08-24T01:35:50.973Z,22.74
2022-08-24T01:36:01.724Z,22.72
2022-08-24T01:36:12.470Z,22.72
2022-08-24T01:36:28.137Z,22.72
2022-08-24T01:36:38.811Z,22.72
2022-08-24T01:36:49.551Z,22.71
2022-08-24T01:37:01.253Z,22.71
2022-08-24T01:37:12.003Z,22.71
2022-08-24T01:37:23.691Z,22.71
2022-08-24T01:37:34.497Z,22.69
2022-08-24T01:37:45.191Z,22.71
2022-08-24T01:37:55.942Z,22.72
2022-08-24T01:38:06.662Z,22.72
2022-08-24T01:38:17.400Z,22.71
2022-08-24T01:38:29.832Z,22.74
2022-08-24T01:38:40.562Z,22.74
2022-08-24T01:38:51.322Z,22.74
2022-08-24T01:39:02.063Z,22.75
2022-08-24T01:39:12.812Z,22.72
2022-08-24T01:39:25.285Z,22.72
2022-08-24T01:39:36.052Z,22.74
2022-08-24T01:39:46.851Z,22.72
2022-08-24T01:39:59.151Z,22.72
2022-08-24T01:40:10.093Z,22.72
2022-08-24T01:40:21.847Z,22.72
2022-08-24T01:40:32.567Z,22.74
2022-08-24T01:40:43.294Z,22.72
2022-08-24T01:40:54.043Z,22.72
2022-08-24T01:41:06.013Z,22.72
2022-08-24T01:41:16.812Z,22.72
2022-08-24T01:41:29.318Z,22.72
2022-08-24T01:41:40.185Z,22.72
2022-08-24T01:41:50.934Z,22.74
2022-08-24T01:42:01.672Z,22.74
2022-08-24T01:42:12.413Z,22.72
2022-08-24T01:42:23.162Z,22.72
2022-08-24T01:42:34.898Z,22.71
2022-08-24T01:42:45.634Z,22.71
2022-08-24T01:42:56.374Z,22.72
2022-08-24T01:43:07.114Z,22.71
2022-08-24T01:43:17.857Z,22.71
2022-08-24T01:43:28.602Z,22.71
2022-08-24T01:43:41.324Z,22.74
2022-08-24T01:43:52.073Z,22.72
2022-08-24T01:44:02.824Z,22.72
2022-08-24T01:44:13.564Z,22.71
2022-08-24T01:44:26.504Z,22.72
2022-08-24T01:44:37.235Z,22.71
2022-08-24T01:44:48.929Z,22.72
2022-08-24T01:44:59.664Z,22.74
2022-08-24T01:45:10.395Z,22.71
2022-08-24T01:45:21.145Z,22.71
2022-08-24T01:45:32.835Z,22.69
2022-08-24T01:45:43.583Z,22.69
2022-08-24T01:45:55.315Z,22.71
2022-08-24T01:46:07.837Z,22.71
2022-08-24T01:46:18.641Z,22.71
2022-08-24T01:46:30.399Z,22.69
2022-08-24T01:46:41.336Z,22.68
2022-08-24T01:46:53.170Z,22.67
2022-08-24T01:47:06.710Z,22.65
2022-08-24T01:47:21.266Z,22.65
2022-08-24T01:47:32.016Z,22.65
2022-08-24T01:47:42.748Z,22.65
2022-08-24T01:47:53.477Z,22.65
2022-08-24T01:48:05.167Z,22.65
2022-08-24T01:48:22.757Z,22.67
2022-08-24T01:48:32.506Z,22.68
2022-08-24T01:48:43.236Z,22.65
2022-08-24T01:48:54.937Z,22.68
2022-08-24T01:49:05.684Z,22.68
2022-08-24T01:49:16.443Z,22.69
2022-08-24T01:49:28.189Z,22.71
2022-08-24T01:49:38.890Z,22.71
2022-08-24T01:49:50.617Z,22.72
2022-08-24T01:50:03.047Z,22.72
2022-08-24T01:50:13.777Z,22.74
2022-08-24T01:50:26.217Z,22.71
2022-08-24T01:50:36.987Z,22.72
2022-08-24T01:50:47.727Z,22.72
2022-08-24T01:50:59.419Z,22.72
2022-08-24T01:51:10.159Z,22.72
2022-08-24T01:51:22.599Z,22.71
2022-08-24T01:51:33.337Z,22.71
2022-08-24T01:51:44.128Z,22.71
2022-08-24T01:51:57.340Z,22.71
2022-08-24T01:52:08.088Z,22.68
2022-08-24T01:52:19.811Z,22.69
2022-08-24T01:52:54.716Z,22.68
2022-08-24T01:53:04.917Z,22.69
2022-08-24T01:53:05.583Z,22.68
2022-08-24T01:53:16.773Z,22.67
2022-08-24T01:53:27.602Z,22.67
2022-08-24T01:53:38.328Z,22.67
2022-08-24T01:53:49.062Z,22.69
2022-08-24T01:54:01.258Z,22.67
2022-08-24T01:54:11.998Z,22.68
2022-08-24T01:54:22.741Z,22.67
2022-08-24T01:54:33.519Z,22.67
2022-08-24T01:54:45.959Z,22.68
2022-08-24T01:54:56.949Z,22.67
2022-08-24T01:55:07.683Z,22.65
2022-08-24T01:55:19.148Z,22.67
2022-08-24T01:55:34.379Z,22.65
2022-08-24T01:55:46.079Z,22.65
2022-08-24T01:55:58.569Z,22.65
2022-08-24T01:56:09.322Z,22.65
2022-08-24T01:56:20.059Z,22.65
2022-08-24T01:56:30.821Z,22.65
2022-08-24T01:56:42.381Z,22.65
2022-08-24T01:56:53.122Z,22.64
2022-08-24T01:57:04.750Z,22.65
2022-08-24T01:57:17.071Z,22.67
2022-08-24T01:57:27.991Z,22.65
2022-08-24T01:57:38.730Z,22.67
2022-08-24T01:57:49.485Z,22.67
2022-08-24T01:58:00.232Z,22.67
2022-08-24T01:58:10.980Z,22.65
2022-08-24T01:58:21.731Z,22.65
2022-08-24T01:58:33.444Z,22.67
2022-08-24T01:58:44.181Z,22.65
2022-08-24T01:58:54.919Z,22.68
2022-08-24T01:59:05.641Z,22.68
2022-08-24T01:59:17.351Z,22.72
2022-08-24T01:59:28.111Z,22.72
2022-08-24T01:59:38.855Z,22.71
2022-08-24T01:59:51.311Z,22.72
2022-08-24T02:00:02.121Z,22.71
2022-08-24T02:00:13.602Z,22.69
2022-08-24T02:00:24.351Z,22.68
2022-08-24T02:00:36.079Z,22.68
2022-08-24T02:00:47.742Z,22.65
2022-08-24T02:00:58.530Z,22.64
2022-08-24T02:01:09.315Z,22.64
2022-08-24T02:01:20.101Z,22.64
2022-08-24T02:01:31.987Z,22.62
2022-08-24T02:01:43.791Z,22.62
2022-08-24T02:01:54.628Z,22.60
2022-08-24T02:02:05.465Z,22.62
2022-08-24T02:02:17.922Z,22.59
2022-08-24T02:02:28.733Z,22.59
2022-08-24T02:02:40.444Z,22.57
2022-08-24T02:02:51.259Z,22.59
2022-08-24T02:03:02.200Z,22.57
2022-08-24T02:03:14.172Z,22.57
2022-08-24T02:03:27.586Z,22.59
2022-08-24T02:03:40.543Z,22.59
2022-08-24T02:03:51.884Z,22.59
2022-08-24T02:04:04.229Z,22.59
2022-08-24T02:04:17.659Z,22.59
2022-08-24T02:04:29.602Z,22.62
2022-08-24T02:04:40.346Z,22.64
2022-08-24T02:04:55.904Z,22.64
2022-08-24T02:05:08.355Z,22.65
2022-08-24T02:05:19.145Z,22.67
2022-08-24T02:05:30.844Z,22.67
2022-08-24T02:05:41.624Z,22.68
2022-08-24T02:05:52.354Z,22.69
2022-08-24T02:06:04.844Z,22.69
2022-08-24T02:06:15.614Z,22.71
2022-08-24T02:06:26.355Z,22.71
2022-08-24T02:06:39.554Z,22.69
2022-08-24T02:06:50.291Z,22.71
2022-08-24T02:07:02.035Z,22.72
2022-08-24T02:07:15.054Z,22.72
2022-08-24T02:07:25.824Z,22.72
2022-08-24T02:07:36.575Z,22.74
2022-08-24T02:07:48.277Z,22.74
2022-08-24T02:08:01.225Z,22.74
2022-08-24T02:08:11.963Z,22.72
2022-08-24T02:08:22.695Z,22.74
2022-08-24T02:08:35.145Z,22.74
2022-08-24T02:08:45.886Z,22.74
2022-08-24T02:08:59.085Z,22.75
2022-08-24T02:09:09.833Z,22.75
2022-08-24T02:09:20.566Z,22.77
2022-08-24T02:09:32.910Z,22.77
2022-08-24T02:09:43.795Z,22.78
2022-08-24T02:09:54.565Z,22.78
2022-08-24T02:10:07.020Z,22.77
2022-08-24T02:10:17.767Z,22.77
2022-08-24T02:10:29.476Z,22.75
2022-08-24T02:10:41.696Z,22.75
2022-08-24T02:10:57.305Z,22.77
2022-08-24T02:11:09.017Z,22.75
2022-08-24T02:11:19.755Z,22.75
2022-08-24T02:11:30.506Z,22.74
2022-08-24T02:11:43.048Z,22.72
2022-08-24T02:11:53.787Z,22.72
2022-08-24T02:12:04.525Z,22.69
2022-08-24T02:12:16.637Z,22.72
2022-08-24T02:12:27.387Z,22.71
2022-08-24T02:12:38.146Z,22.68
2022-08-24T02:12:49.867Z,22.69
2022-08-24T02:13:02.474Z,22.68
2022-08-24T02:13:15.750Z,22.68
2022-08-24T02:13:27.472Z,22.65
2022-08-24T02:13:41.080Z,22.65
2022-08-24T02:13:52.778Z,22.65
2022-08-24T02:14:04.478Z,22.65
2022-08-24T02:14:16.649Z,22.64
2022-08-24T02:14:27.417Z,22.64
2022-08-24T02:14:41.379Z,22.64
2022-08-24T02:14:53.590Z,22.64
2022-08-24T02:15:04.338Z,22.62
2022-08-24T02:15:15.079Z,22.64
2022-08-24T02:15:26.778Z,22.64
2022-08-24T02:15:39.286Z,22.65
2022-08-24T02:15:50.040Z,22.65
2022-08-24T02:16:00.866Z,22.65
2022-08-24T02:16:13.905Z,22.67
2022-08-24T02:16:24.696Z,22.65
2022-08-24T02:16:35.428Z,22.64
2022-08-24T02:16:46.159Z,22.64
2022-08-24T02:16:57.009Z,22.62
2022-08-24T02:17:09.172Z,22.60
2022-08-24T02:17:19.924Z,22.60
2022-08-24T02:17:30.658Z,22.57
2022-08-24T02:17:42.350Z,22.57
2022-08-24T02:17:53.119Z,22.56
2022-08-24T02:18:05.569Z,22.53
2022-08-24T02:18:16.299Z,22.53
2022-08-24T02:18:27.059Z,22.53
2022-08-24T02:18:37.810Z,22.53
2022-08-24T02:18:48.539Z,22.54
2022-08-24T02:18:59.540Z,22.54
2022-08-24T02:19:10.300Z,22.54
2022-08-24T02:19:21.039Z,22.54
2022-08-24T02:19:32.731Z,22.54
2022-08-24T02:19:43.499Z,22.53
2022-08-24T02:19:54.240Z,22.53
2022-08-24T02:20:04.979Z,22.53
2022-08-24T02:20:17.417Z,22.53
2022-08-24T02:20:28.160Z,22.53
2022-08-24T02:20:38.931Z,22.53
2022-08-24T02:20:49.669Z,22.54
2022-08-24T02:21:01.373Z,22.54
2022-08-24T02:21:12.112Z,22.54
2022-08-24T02:21:22.851Z,22.54
2022-08-24T02:21:33.610Z,22.53
2022-08-24T02:21:44.354Z,22.53
2022-08-24T02:21:55.091Z,22.53
2022-08-24T02:22:05.829Z,22.53
2022-08-24T02:22:17.621Z,22.54
2022-08-24T02:22:28.379Z,22.52
2022-08-24T02:22:39.112Z,22.53
2022-08-24T02:22:49.862Z,22.53
2022-08-24T02:23:00.693Z,22.52
2022-08-24T02:23:11.452Z,22.53
2022-08-24T02:23:23.675Z,22.52
2022-08-24T02:23:35.363Z,22.52
2022-08-24T02:23:46.124Z,22.53
2022-08-24T02:23:56.882Z,22.53
2022-08-24T02:24:09.352Z,22.53
2022-08-24T02:24:20.102Z,22.54
2022-08-24T02:24:30.854Z,22.54
2022-08-24T02:24:41.601Z,22.56
2022-08-24T02:24:52.351Z,22.56
2022-08-24T02:25:04.042Z,22.54
2022-08-24T02:25:15.767Z,22.56
2022-08-24T02:25:27.483Z,22.56
2022-08-24T02:25:38.221Z,22.54
2022-08-24T02:25:49.923Z,22.54
2022-08-24T02:26:00.663Z,22.54
2022-08-24T02:26:11.434Z,22.53
2022-08-24T02:26:22.174Z,22.54
2022-08-24T02:26:33.874Z,22.53
2022-08-24T02:26:44.622Z,22.53